Time;durP1;ratioP1;P1;durP2;ratioP2;P2;SDS_P1;SDS_P2;PMS_P1;PMS_P2;Temp;Humidity;BMP_temperature;BMP_pressure;BME280_temperature;BME280_humidity;BME280_pressure;Samples;Min_cycle;Max_cycle;Signal;HPM_P1;HPM_P2
2022/10/24 00:01:15;;;;;;;2.50;1.02;;;21.60;58.70;;;;;;5051843;28;20042;-48
2022/10/24 00:03:41;;;;;;;1.77;0.90;;;21.60;58.70;;;;;;5049590;28;20055;-50
2022/10/24 00:06:09;;;;;;;2.63;0.90;;;21.60;58.70;;;;;;5050975;28;20025;-50
2022/10/24 00:08:36;;;;;;;1.65;0.80;;;21.60;58.70;;;;;;5049173;28;20025;-52
2022/10/24 00:11:10;;;;;;;1.90;0.73;;;21.60;58.80;;;;;;5050815;28;20116;-49
2022/10/24 00:13:36;;;;;;;2.72;0.80;;;21.60;58.70;;;;;;5050983;28;20025;-52
2022/10/24 00:16:02;;;;;;;1.70;0.90;;;21.60;58.70;;;;;;5052045;28;20045;-51
2022/10/24 00:18:28;;;;;;;5.13;1.13;;;21.60;58.70;;;;;;5050795;28;20465;-48
2022/10/24 00:20:54;;;;;;;3.08;0.90;;;21.60;58.70;;;;;;5050776;28;20033;-47
2022/10/24 00:23:20;;;;;;;2.53;1.15;;;21.60;58.60;;;;;;5051034;28;20096;-45
2022/10/24 00:25:46;;;;;;;1.42;0.80;;;21.60;58.60;;;;;;5051793;28;20526;-48
2022/10/24 00:28:12;;;;;;;1.70;1.00;;;21.60;58.60;;;;;;5049860;28;20056;-49
2022/10/24 00:30:38;;;;;;;3.95;1.30;;;21.50;58.60;;;;;;5050231;28;20029;-51
2022/10/24 00:33:03;;;;;;;2.95;1.10;;;21.50;58.60;;;;;;5051772;28;20047;-47
2022/10/24 00:35:30;;;;;;;1.40;0.80;;;21.50;58.50;;;;;;5051622;28;20021;-49
2022/10/24 00:37:56;;;;;;;2.83;1.00;;;21.60;58.60;;;;;;5051771;28;20021;-49
2022/10/24 00:40:21;;;;;;;2.85;0.95;;;21.50;58.50;;;;;;5049657;28;20494;-50
2022/10/24 00:42:48;;;;;;;1.80;1.05;;;21.60;58.50;;;;;;5049992;28;20033;-49
2022/10/24 00:45:40;;;;;;;1.70;1.10;;;21.50;58.40;;;;;;5050673;28;20436;-51
2022/10/24 00:48:37;;;;;;;4.35;1.15;;;21.50;58.40;;;;;;5027623;28;20052;-47
2022/10/24 00:51:20;;;;;;;3.25;1.10;;;21.50;58.40;;;;;;5044795;28;20040;-48
2022/10/24 00:53:58;;;;;;;1.88;0.90;;;21.50;58.40;;;;;;5048750;28;20032;-48
2022/10/24 00:56:29;;;;;;;1.98;1.20;;;21.50;58.30;;;;;;5051233;28;20025;-50
2022/10/24 00:58:58;;;;;;;2.35;0.98;;;21.50;58.30;;;;;;5046733;28;20118;-46
2022/10/24 01:01:25;;;;;;;2.80;0.90;;;21.50;58.30;;;;;;5048462;28;20063;-51
2022/10/24 01:03:50;;;;;;;1.98;0.90;;;21.50;58.30;;;;;;5049664;28;20198;-48
2022/10/24 01:06:41;;;;;;;2.47;1.00;;;21.50;58.80;;;;;;5050730;28;20120;-52
2022/10/24 01:09:30;;;;;;;2.83;1.00;;;21.50;58.20;;;;;;5046030;28;20408;-48
2022/10/24 01:12:33;;;;;;;1.33;0.90;;;21.50;58.10;;;;;;5051064;28;20025;-50
2022/10/24 01:15:09;;;;;;;2.42;0.90;;;21.50;58.10;;;;;;5039731;28;20494;-47
2022/10/24 01:17:49;;;;;;;2.65;1.10;;;21.50;58.10;;;;;;5046651;28;20029;-50
2022/10/24 01:20:53;;;;;;;2.42;1.20;;;21.50;58.10;;;;;;5046487;28;20031;-47
2022/10/24 01:23:55;;;;;;;4.82;1.20;;;21.50;58.00;;;;;;5050178;28;20044;-48
2022/10/24 01:26:25;;;;;;;1.55;0.80;;;21.50;58.00;;;;;;5046453;28;20029;-46
2022/10/24 01:29:21;;;;;;;3.03;1.17;;;21.50;58.00;;;;;;5051254;28;20052;-49
2022/10/24 01:32:03;;;;;;;3.53;0.98;;;21.50;57.90;;;;;;5023992;28;20048;-48
2022/10/24 01:34:58;;;;;;;1.63;0.93;;;21.50;57.90;;;;;;5050615;28;20371;-48
2022/10/24 01:37:49;;;;;;;3.47;1.35;;;21.50;57.90;;;;;;5021502;28;20045;-50
2022/10/24 01:40:34;;;;;;;2.40;0.98;;;21.50;57.90;;;;;;5048893;28;20029;-52
2022/10/24 01:43:08;;;;;;;3.45;1.35;;;21.50;57.80;;;;;;5049068;28;20506;-47
2022/10/24 01:45:37;;;;;;;2.42;1.00;;;21.50;57.80;;;;;;5050498;28;20035;-46
2022/10/24 01:48:08;;;;;;;1.83;0.90;;;21.50;57.70;;;;;;5049670;28;20032;-47
2022/10/24 01:50:36;;;;;;;2.72;1.17;;;21.50;57.70;;;;;;5050732;28;20079;-47
2022/10/24 01:53:03;;;;;;;1.25;0.75;;;21.50;57.70;;;;;;5046174;28;20029;-45
2022/10/24 01:55:33;;;;;;;1.88;1.00;;;21.50;57.60;;;;;;5048744;28;20471;-48
2022/10/24 01:57:58;;;;;;;2.13;1.10;;;21.40;57.50;;;;;;5049360;28;20032;-46
2022/10/24 02:00:25;;;;;;;2.33;1.33;;;21.50;57.50;;;;;;5049936;28;20504;-47
2022/10/24 02:02:59;;;;;;;3.83;1.25;;;21.40;57.50;;;;;;5049495;28;20037;-50
2022/10/24 02:05:53;;;;;;;2.70;1.20;;;21.50;57.40;;;;;;5048669;28;20033;-49
2022/10/24 02:08:25;;;;;;;1.52;0.90;;;21.40;57.40;;;;;;5047228;28;20032;-48
2022/10/24 02:10:58;;;;;;;1.80;1.10;;;21.50;57.40;;;;;;5045945;28;20412;-49
2022/10/24 02:14:03;;;;;;;2.38;1.13;;;21.40;57.30;;;;;;5048283;28;20029;-48
2022/10/24 02:16:29;;;;;;;2.97;1.25;;;21.40;57.30;;;;;;5048356;28;20052;-47
2022/10/24 02:18:57;;;;;;;3.28;1.02;;;21.40;57.30;;;;;;5047389;28;20033;-48
2022/10/24 02:21:41;;;;;;;1.85;1.15;;;21.40;57.30;;;;;;5049099;28;20064;-46
2022/10/24 02:24:23;;;;;;;1.58;1.00;;;21.40;57.20;;;;;;5051118;28;20048;-52
2022/10/24 02:26:52;;;;;;;2.75;1.10;;;21.40;57.20;;;;;;5053731;28;20032;-48
2022/10/24 02:29:26;;;;;;;2.15;0.90;;;21.40;57.10;;;;;;5052311;28;20411;-49
2022/10/24 02:31:57;;;;;;;1.65;0.90;;;21.40;57.10;;;;;;5051432;28;20021;-48
2022/10/24 02:34:28;;;;;;;1.52;0.90;;;21.40;57.00;;;;;;5053428;28;20360;-48
2022/10/24 02:36:56;;;;;;;3.10;1.00;;;21.40;57.00;;;;;;5053433;28;20025;-50
2022/10/24 02:39:24;;;;;;;2.25;1.00;;;21.40;57.00;;;;;;5053535;28;20021;-46
2022/10/24 02:41:53;;;;;;;2.15;1.08;;;21.40;56.90;;;;;;5053279;28;20029;-49
2022/10/24 02:44:20;;;;;;;4.10;0.98;;;21.40;56.80;;;;;;5053433;28;20037;-48
2022/10/24 02:46:49;;;;;;;2.05;0.90;;;21.40;56.70;;;;;;5053657;28;20067;-46
2022/10/24 02:49:15;;;;;;;1.90;0.98;;;21.40;56.70;;;;;;5053150;28;20463;-46
2022/10/24 02:51:43;;;;;;;2.70;1.02;;;21.40;56.70;;;;;;5051279;28;20448;-49
2022/10/24 02:54:10;;;;;;;1.90;0.80;;;21.40;56.60;;;;;;5050687;28;20463;-48
2022/10/24 02:56:40;;;;;;;1.67;0.73;;;21.40;56.50;;;;;;5053226;28;20411;-51
2022/10/24 02:59:06;;;;;;;1.67;1.00;;;21.40;56.50;;;;;;5051966;28;20890;-47
2022/10/24 03:01:32;;;;;;;2.65;1.02;;;21.40;56.40;;;;;;5052575;28;20444;-49
2022/10/24 03:03:58;;;;;;;2.80;1.10;;;21.40;56.40;;;;;;5052676;28;20029;-47
2022/10/24 03:06:24;;;;;;;3.20;1.20;;;21.40;56.40;;;;;;5051959;28;20043;-47
2022/10/24 03:08:50;;;;;;;4.35;1.10;;;21.40;56.30;;;;;;5052328;28;20063;-49
2022/10/24 03:11:16;;;;;;;3.00;0.90;;;21.40;56.20;;;;;;5052547;28;20064;-51
2022/10/24 03:13:42;;;;;;;2.35;0.93;;;21.40;56.20;;;;;;5050265;28;20035;-49
2022/10/24 03:16:07;;;;;;;2.80;1.00;;;21.40;56.20;;;;;;5052287;28;20041;-46
2022/10/24 03:18:33;;;;;;;2.47;1.10;;;21.40;56.10;;;;;;5053594;28;20025;-48
2022/10/24 03:20:59;;;;;;;1.95;0.90;;;21.40;56.70;;;;;;5051146;28;20025;-47
2022/10/24 03:23:27;;;;;;;2.50;0.95;;;21.40;56.00;;;;;;5052415;28;20045;-48
2022/10/24 03:25:55;;;;;;;2.38;0.90;;;21.40;56.00;;;;;;5050203;28;20041;-50
2022/10/24 03:28:21;;;;;;;4.15;1.00;;;21.40;55.90;;;;;;5053078;28;20384;-47
2022/10/24 03:30:47;;;;;;;2.05;1.13;;;21.40;55.90;;;;;;5050382;28;20063;-49
2022/10/24 03:33:13;;;;;;;2.47;1.02;;;21.40;55.80;;;;;;5051768;28;20025;-46
2022/10/24 03:35:39;;;;;;;1.75;0.98;;;21.40;55.80;;;;;;5053049;28;20035;-48
2022/10/24 03:38:07;;;;;;;1.60;0.80;;;21.40;55.70;;;;;;5052057;28;20494;-48
2022/10/24 03:40:34;;;;;;;1.73;0.90;;;21.40;55.70;;;;;;5052299;28;20025;-47
2022/10/24 03:43:00;;;;;;;2.83;1.10;;;21.40;55.70;;;;;;5051670;28;20102;-48
2022/10/24 03:45:26;;;;;;;3.58;0.90;;;21.40;55.60;;;;;;5052878;28;20087;-46
2022/10/24 03:47:52;;;;;;;2.55;1.20;;;21.40;55.60;;;;;;5050249;28;20029;-48
2022/10/24 03:50:18;;;;;;;2.10;0.80;;;21.40;55.50;;;;;;5052182;28;20100;-50
2022/10/24 03:52:43;;;;;;;2.53;1.08;;;21.40;55.40;;;;;;5052192;28;20107;-48
2022/10/24 03:55:10;;;;;;;1.45;0.80;;;21.40;55.40;;;;;;5051230;28;20333;-46
2022/10/24 03:57:36;;;;;;;1.67;1.00;;;21.40;55.30;;;;;;5051959;28;20041;-46
2022/10/24 04:00:03;;;;;;;3.08;1.05;;;21.40;55.30;;;;;;5050595;28;20095;-51
2022/10/24 04:02:32;;;;;;;1.92;0.93;;;21.40;55.30;;;;;;5051052;28;20140;-51
2022/10/24 04:04:58;;;;;;;1.88;0.90;;;21.40;55.20;;;;;;5050993;28;20447;-46
2022/10/24 04:07:24;;;;;;;1.15;0.65;;;21.40;55.20;;;;;;5051926;28;20025;-46
2022/10/24 04:09:49;;;;;;;1.35;0.80;;;21.30;55.10;;;;;;5048221;28;20116;-48
2022/10/24 04:12:15;;;;;;;2.33;0.80;;;21.30;55.00;;;;;;5052463;28;20063;-50
2022/10/24 04:14:41;;;;;;;2.28;1.00;;;21.30;54.90;;;;;;5049693;28;20380;-48
2022/10/24 04:17:07;;;;;;;2.40;1.10;;;21.30;54.90;;;;;;5051602;28;20021;-47
2022/10/24 04:19:33;;;;;;;1.55;0.90;;;21.40;54.90;;;;;;5047490;28;20448;-46
2022/10/24 04:21:58;;;;;;;2.10;0.93;;;21.30;54.80;;;;;;5051474;28;20029;-47
2022/10/24 04:24:24;;;;;;;1.95;0.80;;;21.30;54.80;;;;;;5051413;28;20111;-48
2022/10/24 04:26:50;;;;;;;1.73;0.70;;;21.30;54.70;;;;;;5049746;28;20141;-48
2022/10/24 04:29:16;;;;;;;1.60;0.90;;;21.40;54.80;;;;;;5050877;28;20032;-45
2022/10/24 04:31:41;;;;;;;1.63;0.90;;;21.30;54.70;;;;;;5050223;28;20017;-46
2022/10/24 04:34:07;;;;;;;1.92;0.70;;;21.30;54.60;;;;;;5051900;28;20439;-48
2022/10/24 04:36:34;;;;;;;1.75;0.90;;;21.30;54.60;;;;;;5051574;28;20379;-47
2022/10/24 04:38:59;;;;;;;2.05;1.00;;;21.30;54.60;;;;;;5051271;28;20029;-50
2022/10/24 04:41:25;;;;;;;2.13;0.90;;;21.30;54.60;;;;;;5048659;28;20035;-47
2022/10/24 04:43:52;;;;;;;2.78;0.95;;;21.30;54.60;;;;;;5048571;28;20037;-48
2022/10/24 04:46:18;;;;;;;2.03;0.63;;;21.30;54.60;;;;;;5050242;28;20499;-53
2022/10/24 04:48:44;;;;;;;1.45;0.60;;;21.30;54.60;;;;;;5051493;28;20122;-49
2022/10/24 04:51:10;;;;;;;3.30;0.88;;;21.30;54.60;;;;;;5050081;28;20033;-50
2022/10/24 04:53:36;;;;;;;1.30;0.88;;;21.30;54.50;;;;;;5050852;28;20104;-48
2022/10/24 04:56:02;;;;;;;2.03;0.75;;;21.30;54.50;;;;;;5050356;28;20123;-48
2022/10/24 04:58:27;;;;;;;1.63;0.73;;;21.30;54.50;;;;;;5051909;28;20048;-50
2022/10/24 05:00:53;;;;;;;2.42;1.02;;;21.30;54.50;;;;;;5046450;28;20059;-50
2022/10/24 05:03:21;;;;;;;2.30;0.90;;;21.30;54.50;;;;;;5050423;28;20432;-47
2022/10/24 05:05:46;;;;;;;1.52;0.80;;;21.30;54.50;;;;;;5050734;28;20025;-50
2022/10/24 05:08:12;;;;;;;2.42;0.77;;;21.30;54.50;;;;;;5050352;28;20364;-49
2022/10/24 05:10:38;;;;;;;2.60;0.90;;;21.30;54.50;;;;;;5048108;28;20412;-50
2022/10/24 05:13:04;;;;;;;2.47;0.90;;;21.30;54.50;;;;;;5050258;28;20399;-47
2022/10/24 05:15:30;;;;;;;2.17;0.60;;;21.30;54.50;;;;;;5050230;28;20049;-49
2022/10/24 05:17:57;;;;;;;1.77;0.82;;;21.30;54.50;;;;;;5050266;28;20158;-53
2022/10/24 05:20:23;;;;;;;1.48;0.75;;;21.30;54.50;;;;;;5047247;28;20055;-50
2022/10/24 05:22:49;;;;;;;2.92;0.80;;;21.30;54.40;;;;;;5049975;28;20056;-52
2022/10/24 05:25:15;;;;;;;1.80;0.82;;;21.30;54.40;;;;;;5050093;28;20024;-51
2022/10/24 05:27:41;;;;;;;3.30;1.08;;;21.30;54.30;;;;;;5049027;28;20025;-50
2022/10/24 05:30:08;;;;;;;1.75;0.90;;;21.30;54.30;;;;;;5050033;28;20032;-50
2022/10/24 05:32:34;;;;;;;2.70;1.08;;;21.30;54.30;;;;;;5049855;28;20448;-50
2022/10/24 05:35:00;;;;;;;2.53;0.93;;;21.30;54.30;;;;;;5049971;28;20047;-50
2022/10/24 05:37:26;;;;;;;1.88;0.70;;;21.30;54.30;;;;;;5050440;28;20029;-48
2022/10/24 05:39:52;;;;;;;2.22;0.90;;;21.30;54.30;;;;;;5050879;28;20326;-52
2022/10/24 05:42:17;;;;;;;1.38;0.88;;;21.30;54.20;;;;;;5049453;28;20028;-52
2022/10/24 05:44:43;;;;;;;2.67;0.80;;;21.30;54.90;;;;;;5049102;28;21536;-53
2022/10/24 05:47:09;;;;;;;1.73;0.80;;;21.30;54.20;;;;;;5048469;28;20021;-49
2022/10/24 05:49:35;;;;;;;2.17;0.98;;;21.30;54.20;;;;;;5050736;28;20384;-50
2022/10/24 05:52:01;;;;;;;2.17;0.70;;;21.30;54.20;;;;;;5049011;28;20444;-55
2022/10/24 05:54:26;;;;;;;1.25;0.70;;;21.30;54.20;;;;;;5048368;28;20028;-50
2022/10/24 05:56:52;;;;;;;1.70;0.82;;;21.30;54.20;;;;;;5049274;28;20084;-48
2022/10/24 05:59:18;;;;;;;1.40;0.70;;;21.30;54.20;;;;;;5049696;28;20029;-52
2022/10/24 06:01:44;;;;;;;3.92;0.95;;;21.30;54.10;;;;;;5050026;28;20440;-51
2022/10/24 06:04:10;;;;;;;1.70;0.90;;;21.30;54.10;;;;;;5048256;28;20037;-51
2022/10/24 06:06:43;;;;;;;1.50;0.95;;;21.30;54.70;;;;;;5048944;28;20021;-50
2022/10/24 06:09:11;;;;;;;1.30;0.82;;;21.30;54.10;;;;;;5042798;28;20455;-49
2022/10/24 06:11:36;;;;;;;2.10;0.85;;;21.30;54.10;;;;;;5049924;28;20114;-51
2022/10/24 06:14:03;;;;;;;2.15;0.65;;;21.30;54.20;;;;;;5049039;28;20018;-53
2022/10/24 06:16:29;;;;;;;2.28;0.75;;;21.30;54.20;;;;;;5050313;28;20058;-50
2022/10/24 06:18:59;;;;;;;2.33;0.95;;;21.30;54.20;;;;;;5047666;28;20021;-48
2022/10/24 06:21:25;;;;;;;2.80;1.02;;;21.30;54.30;;;;;;5048870;28;20036;-53
2022/10/24 06:23:51;;;;;;;1.88;0.70;;;21.30;54.30;;;;;;5049112;28;20573;-50
2022/10/24 06:26:18;;;;;;;1.35;0.65;;;21.30;54.20;;;;;;5047108;28;20357;-49
2022/10/24 06:28:44;;;;;;;2.85;1.08;;;21.30;54.20;;;;;;5049155;28;20079;-48
2022/10/24 06:31:11;;;;;;;1.40;0.70;;;21.30;54.30;;;;;;5048433;28;20025;-48
2022/10/24 06:33:38;;;;;;;2.55;0.80;;;21.30;54.30;;;;;;5049559;28;20040;-51
2022/10/24 06:36:05;;;;;;;1.80;0.75;;;21.30;54.30;;;;;;5050023;28;20044;-46
2022/10/24 06:38:32;;;;;;;4.15;0.93;;;21.30;54.40;;;;;;5049657;28;20035;-46
2022/10/24 06:40:58;;;;;;;3.72;0.90;;;21.30;54.40;;;;;;5049708;28;20113;-50
2022/10/24 06:43:24;;;;;;;2.22;0.80;;;21.30;54.50;;;;;;5048613;28;20164;-52
2022/10/24 06:45:50;;;;;;;2.15;0.77;;;21.30;54.50;;;;;;5049754;28;20033;-47
2022/10/24 06:48:16;;;;;;;1.63;0.60;;;21.30;54.50;;;;;;5049153;28;20025;-53
2022/10/24 06:50:42;;;;;;;3.25;1.02;;;21.30;54.50;;;;;;5048363;28;20048;-51
2022/10/24 06:53:09;;;;;;;1.30;0.80;;;21.30;54.50;;;;;;5047068;28;20356;-50
2022/10/24 06:55:38;;;;;;;5.35;1.17;;;21.30;54.50;;;;;;5047383;28;20025;-48
2022/10/24 06:58:05;;;;;;;1.85;0.68;;;21.30;54.50;;;;;;5046163;28;20028;-49
2022/10/24 07:00:33;;;;;;;2.85;0.80;;;21.30;54.50;;;;;;5048545;28;20512;-49
2022/10/24 07:02:59;;;;;;;2.00;0.80;;;21.30;54.50;;;;;;5047173;28;20052;-52
2022/10/24 07:05:25;;;;;;;2.53;0.85;;;21.30;54.40;;;;;;5047820;28;20025;-49
2022/10/24 07:07:50;;;;;;;2.55;0.90;;;21.30;54.40;;;;;;5047108;28;20508;-47
2022/10/24 07:10:16;;;;;;;2.78;1.05;;;21.30;54.40;;;;;;5047286;28;20033;-50
2022/10/24 07:12:42;;;;;;;2.35;0.77;;;21.30;54.40;;;;;;5045666;28;20036;-49
2022/10/24 07:15:08;;;;;;;1.83;0.85;;;21.30;54.40;;;;;;5050507;28;20049;-50
2022/10/24 07:17:42;;;;;;;2.85;0.88;;;21.30;54.50;;;;;;5048712;28;20025;-47
2022/10/24 07:20:09;;;;;;;4.88;1.00;;;21.30;54.50;;;;;;5047676;28;20064;-52
2022/10/24 07:22:35;;;;;;;1.83;0.80;;;21.30;54.50;;;;;;5050853;28;20037;-49
2022/10/24 07:25:01;;;;;;;4.75;0.93;;;21.30;54.60;;;;;;5050814;28;20094;-47
2022/10/24 07:27:27;;;;;;;2.83;1.00;;;21.30;54.60;;;;;;5051432;28;20079;-51
2022/10/24 07:29:53;;;;;;;3.13;0.93;;;21.30;54.60;;;;;;5052100;28;20024;-47
2022/10/24 07:32:20;;;;;;;2.25;0.90;;;21.30;54.60;;;;;;5050533;28;20029;-53
2022/10/24 07:34:49;;;;;;;1.42;0.85;;;21.30;54.60;;;;;;5051659;28;20029;-53
2022/10/24 07:37:16;;;;;;;3.17;1.15;;;21.30;54.60;;;;;;5050742;28;20037;-46
2022/10/24 07:39:42;;;;;;;4.03;1.30;;;21.30;54.60;;;;;;5053254;28;20029;-48
2022/10/24 07:42:10;;;;;;;2.67;0.98;;;21.30;54.60;;;;;;5055414;28;20083;-50
2022/10/24 07:44:36;;;;;;;2.40;0.98;;;21.30;54.60;;;;;;5043720;28;20384;-50
2022/10/24 07:47:05;;;;;;;2.72;0.90;;;21.30;54.70;;;;;;5055304;28;20025;-47
2022/10/24 07:49:32;;;;;;;2.67;0.88;;;21.40;55.40;;;;;;5053868;28;20072;-47
2022/10/24 07:51:58;;;;;;;3.30;1.10;;;21.30;54.70;;;;;;5050506;28;20108;-46
2022/10/24 07:54:25;;;;;;;3.60;1.27;;;21.30;54.80;;;;;;5050588;28;20029;-49
2022/10/24 07:56:51;;;;;;;3.30;1.00;;;21.40;54.80;;;;;;5051999;28;20028;-49
2022/10/24 07:59:17;;;;;;;2.35;0.98;;;21.40;54.80;;;;;;5048296;28;20060;-49
2022/10/24 08:01:43;;;;;;;2.35;1.00;;;21.40;54.80;;;;;;5051564;28;20372;-47
2022/10/24 08:04:10;;;;;;;2.22;0.70;;;21.40;54.70;;;;;;5051379;28;20072;-49
2022/10/24 08:06:36;;;;;;;3.08;0.80;;;21.40;54.70;;;;;;5056501;28;20029;-47
2022/10/24 08:09:02;;;;;;;3.38;0.98;;;21.40;54.70;;;;;;5050579;28;20045;-46
2022/10/24 08:11:29;;;;;;;2.75;0.85;;;21.40;54.70;;;;;;5051453;28;20108;-46
2022/10/24 08:13:58;;;;;;;2.47;0.88;;;21.40;54.70;;;;;;5051904;28;20025;-49
2022/10/24 08:16:25;;;;;;;3.53;1.13;;;21.40;54.70;;;;;;5049980;28;20050;-49
2022/10/24 08:18:52;;;;;;;3.88;1.08;;;21.40;54.60;;;;;;5050877;28;20093;-50
2022/10/24 08:21:20;;;;;;;2.45;0.77;;;21.40;54.60;;;;;;5049206;28;20029;-47
2022/10/24 08:23:49;;;;;;;3.50;0.98;;;21.40;54.60;;;;;;5049090;28;20440;-50
2022/10/24 08:26:17;;;;;;;2.90;0.90;;;21.50;55.30;;;;;;5047607;28;20036;-46
2022/10/24 08:28:45;;;;;;;2.80;1.00;;;21.40;54.60;;;;;;5046966;28;20021;-47
2022/10/24 08:31:13;;;;;;;4.38;0.82;;;21.40;54.60;;;;;;5040055;28;20333;-51
2022/10/24 08:33:40;;;;;;;3.45;1.00;;;21.50;54.60;;;;;;5040717;28;20363;-49
2022/10/24 08:36:14;;;;;;;2.65;1.00;;;21.50;54.50;;;;;;5056527;28;20033;-49
2022/10/24 08:38:40;;;;;;;2.72;0.98;;;21.50;54.30;;;;;;5047668;28;20025;-49
2022/10/24 08:41:09;;;;;;;2.30;0.95;;;21.50;54.20;;;;;;5036703;28;20022;-52
2022/10/24 08:43:35;;;;;;;2.40;0.85;;;21.50;54.20;;;;;;5049210;28;20052;-46
2022/10/24 08:46:22;;;;;;;2.58;0.95;;;21.50;54.10;;;;;;5055785;28;20352;-52
2022/10/24 08:48:55;;;;;;;3.17;1.08;;;21.50;54.00;;;;;;5054514;28;20463;-49
2022/10/24 08:51:44;;;;;;;2.50;1.00;;;21.50;54.00;;;;;;5036485;28;20068;-50
2022/10/24 08:54:15;;;;;;;3.80;1.23;;;21.50;54.00;;;;;;5040715;28;20045;-48
2022/10/24 08:56:41;;;;;;;2.15;1.00;;;21.50;53.90;;;;;;5054929;28;20040;-49
2022/10/24 08:59:12;;;;;;;2.08;0.75;;;21.50;53.90;;;;;;5055952;28;20033;-48
2022/10/24 09:01:47;;;;;;;2.92;1.00;;;21.50;53.90;;;;;;5055095;28;20033;-50
2022/10/24 09:04:17;;;;;;;3.22;1.00;;;21.50;53.90;;;;;;5055690;28;20048;-50
2022/10/24 09:06:45;;;;;;;2.28;0.98;;;21.60;53.90;;;;;;5055995;28;20090;-50
2022/10/24 09:09:23;;;;;;;3.20;0.90;;;21.50;53.70;;;;;;5055588;28;20040;-50
2022/10/24 09:11:58;;;;;;;4.65;1.23;;;21.50;53.70;;;;;;5054650;28;20348;-53
2022/10/24 09:14:32;;;;;;;2.70;0.90;;;21.60;53.70;;;;;;5053331;28;20788;-52
2022/10/24 09:17:20;;;;;;;3.10;0.98;;;21.50;53.60;;;;;;5055884;28;20415;-52
2022/10/24 09:19:53;;;;;;;1.73;0.70;;;21.50;53.50;;;;;;5055928;28;20116;-48
2022/10/24 09:22:20;;;;;;;2.50;0.80;;;21.60;53.50;;;;;;5054691;28;20060;-52
2022/10/24 09:25:16;;;;;;;2.30;0.82;;;21.60;53.40;;;;;;5036306;28;20033;-50
2022/10/24 09:27:42;;;;;;;;;;;21.60;53.40;;;;;;5040076;28;20044;-51
2022/10/24 09:30:18;;;;;;;2.53;0.88;;;21.60;53.40;;;;;;5055375;28;20258;-52
2022/10/24 09:32:44;;;;;;;2.42;0.80;;;21.60;53.40;;;;;;5049672;28;20496;-51
2022/10/24 09:35:22;;;;;;;2.22;0.68;;;21.60;53.40;;;;;;5035625;28;20059;-53
2022/10/24 09:38:18;;;;;;;2.53;0.60;;;21.60;53.30;;;;;;5035474;28;20388;-51
2022/10/24 09:40:50;;;;;;;2.95;1.13;;;21.60;53.30;;;;;;5033971;28;20042;-49
2022/10/24 09:43:20;;;;;;;3.35;1.02;;;21.60;53.20;;;;;;5035397;28;20038;-52
2022/10/24 09:46:21;;;;;;;3.25;1.10;;;21.60;53.20;;;;;;5039735;28;20112;-51
2022/10/24 09:49:11;;;;;;;2.58;1.00;;;21.70;53.20;;;;;;5029186;28;20060;-51
2022/10/24 09:51:41;;;;;;;2.67;1.13;;;21.70;53.20;;;;;;5052799;28;20040;-48
2022/10/24 09:54:19;;;;;;;4.85;1.05;;;21.60;53.10;;;;;;5044101;28;20037;-51
2022/10/24 09:57:15;;;;;;;1.60;1.02;;;21.70;53.10;;;;;;5044887;28;20021;-52
2022/10/24 10:00:20;;;;;;;3.50;1.10;;;21.70;53.10;;;;;;5026861;28;20357;-52
2022/10/24 10:03:16;;;;;;;7.40;1.10;;;21.70;53.10;;;;;;5035256;28;20081;-52
2022/10/24 10:05:51;;;;;;;2.03;1.00;;;21.70;53.00;;;;;;5034970;28;20124;-52
2022/10/24 10:08:21;;;;;;;2.35;0.68;;;21.70;53.00;;;;;;5039294;28;20044;-51
2022/10/24 10:10:56;;;;;;;2.33;0.82;;;21.70;52.90;;;;;;5047139;28;20044;-49
2022/10/24 10:13:24;;;;;;;2.65;0.88;;;21.70;52.90;;;;;;5042426;28;20030;-50
2022/10/24 10:15:54;;;;;;;2.70;0.82;;;21.70;52.90;;;;;;5034694;28;20049;-51
2022/10/24 10:18:25;;;;;;;2.08;0.77;;;21.70;52.90;;;;;;5035015;28;20041;-52
2022/10/24 10:21:06;;;;;;;2.25;0.63;;;21.70;52.90;;;;;;5033783;28;20033;-48
2022/10/24 10:23:37;;;;;;;1.83;0.75;;;21.70;52.80;;;;;;5033743;28;20081;-52
2022/10/24 10:26:14;;;;;;;2.95;0.80;;;21.70;52.90;;;;;;5033966;28;20061;-47
2022/10/24 10:28:52;;;;;;;1.95;0.75;;;21.80;53.00;;;;;;5035218;28;20381;-48
2022/10/24 10:31:22;;;;;;;1.40;0.63;;;21.80;53.00;;;;;;5034199;28;20096;-51
2022/10/24 10:33:56;;;;;;;1.77;0.70;;;21.80;52.90;;;;;;5033882;28;20033;-50
2022/10/24 10:36:33;;;;;;;1.70;0.80;;;21.70;52.80;;;;;;5030597;28;20067;-46
2022/10/24 10:39:20;;;;;;;2.00;0.60;;;21.80;52.90;;;;;;5029909;28;20029;-52
2022/10/24 10:42:11;;;;;;;1.95;0.68;;;21.80;52.80;;;;;;5033649;28;20037;-51
2022/10/24 10:44:52;;;;;;;2.55;0.73;;;21.80;52.70;;;;;;5036291;28;20104;-49
2022/10/24 10:47:28;;;;;;;2.40;0.90;;;21.80;52.90;;;;;;5035455;28;20039;-52
2022/10/24 10:49:57;;;;;;;2.30;0.77;;;21.80;52.70;;;;;;5035535;28;20033;-51
2022/10/24 10:52:46;;;;;;;1.67;0.60;;;21.80;52.70;;;;;;5036432;28;20140;-47
2022/10/24 10:55:26;;;;;;;1.83;0.70;;;21.80;52.60;;;;;;5035457;28;20113;-49
2022/10/24 10:58:03;;;;;;;1.88;0.55;;;21.80;52.50;;;;;;5027341;28;20025;-51
2022/10/24 11:00:48;;;;;;;1.48;0.70;;;21.90;52.60;;;;;;5037946;28;20361;-51
2022/10/24 11:03:54;;;;;;;2.75;0.80;;;21.80;52.40;;;;;;5036035;28;20472;-49
2022/10/24 11:06:20;;;;;;;2.47;0.68;;;21.80;52.40;;;;;;5019494;28;20136;-52
2022/10/24 11:09:37;;;;;;;2.10;0.60;;;21.80;52.40;;;;;;5034384;28;20177;-51
2022/10/24 11:12:10;;;;;;;2.08;0.60;;;21.80;52.30;;;;;;5016092;28;20056;-50
2022/10/24 11:14:42;;;;;;;2.45;0.70;;;21.90;52.30;;;;;;5038258;28;20055;-48
2022/10/24 11:17:22;;;;;;;1.42;0.57;;;21.80;52.20;;;;;;5054644;28;20040;-53
2022/10/24 11:20:17;;;;;;;2.05;0.60;;;21.90;52.20;;;;;;5049459;28;20041;-52
2022/10/24 11:23:09;;;;;;;1.65;0.70;;;21.90;52.20;;;;;;5050120;28;20079;-53
2022/10/24 11:25:56;;;;;;;1.75;0.60;;;21.90;52.10;;;;;;5050756;28;20029;-52
2022/10/24 11:29:00;;;;;;;1.85;0.63;;;21.90;52.20;;;;;;5050479;28;20100;-48
2022/10/24 11:31:35;;;;;;;2.60;0.65;;;21.90;52.10;;;;;;5041657;28;20045;-53
2022/10/24 11:34:10;;;;;;;2.60;0.70;;;21.90;52.10;;;;;;5056301;28;20487;-49
2022/10/24 11:36:43;;;;;;;2.28;0.88;;;21.90;52.10;;;;;;5050554;28;20115;-56
2022/10/24 11:39:28;;;;;;;1.30;0.55;;;21.90;52.10;;;;;;5050615;28;20344;-58
2022/10/24 11:42:30;;;;;;;1.60;0.40;;;21.90;52.20;;;;;;5055326;28;20025;-55
2022/10/24 11:45:12;;;;;;;4.65;1.02;;;21.90;52.40;;;;;;5008948;28;20131;-55
2022/10/24 11:47:58;;;;;;;1.63;0.65;;;22.00;52.40;;;;;;5048005;28;20547;-59
2022/10/24 11:50:32;;;;;;;2.13;0.82;;;22.10;52.30;;;;;;5050461;28;20043;-57
2022/10/24 11:53:01;;;;;;;1.55;0.52;;;22.20;52.10;;;;;;5036676;28;20025;-59
2022/10/24 11:55:37;;;;;;;1.55;0.65;;;22.30;51.90;;;;;;5047827;28;20380;-56
2022/10/24 11:58:15;;;;;;;2.08;0.60;;;22.40;51.70;;;;;;5049840;28;20111;-58
2022/10/24 12:01:12;;;;;;;2.33;0.75;;;22.50;51.60;;;;;;5051777;28;20044;-56
2022/10/24 12:03:57;;;;;;;2.40;0.80;;;22.60;51.30;;;;;;5056304;28;20065;-56
2022/10/24 12:06:55;;;;;;;2.67;0.80;;;22.70;51.20;;;;;;5053733;28;20093;-53
2022/10/24 12:09:46;;;;;;;1.70;0.50;;;22.90;51.00;;;;;;5039985;28;20408;-55
2022/10/24 12:12:26;;;;;;;2.40;0.63;;;23.00;51.00;;;;;;5043574;28;20397;-55
2022/10/24 12:15:01;;;;;;;2.25;0.68;;;23.10;51.00;;;;;;5054933;28;20119;-52
2022/10/24 12:17:46;;;;;;;2.13;0.50;;;23.20;51.10;;;;;;5057045;28;20029;-59
2022/10/24 12:20:20;;;;;;;1.38;0.47;;;23.30;51.10;;;;;;5044913;28;20033;-58
2022/10/24 12:22:47;;;;;;;3.85;0.88;;;23.40;51.00;;;;;;5051905;28;20040;-57
2022/10/24 12:25:21;;;;;;;2.55;0.60;;;23.50;50.90;;;;;;5049136;28;20036;-55
2022/10/24 12:27:56;;;;;;;2.97;0.70;;;23.50;51.30;;;;;;5048790;28;20028;-56
2022/10/24 12:30:25;;;;;;;1.65;0.43;;;23.60;50.60;;;;;;5052267;28;20449;-56
2022/10/24 12:33:22;;;;;;;2.85;0.65;;;23.70;50.40;;;;;;5050513;28;20151;-56
2022/10/24 12:35:51;;;;;;;1.10;0.50;;;23.70;50.10;;;;;;5052850;28;20056;-59
2022/10/24 12:38:26;;;;;;;2.63;0.63;;;23.80;49.90;;;;;;5048160;28;20350;-58
2022/10/24 12:41:31;;;;;;;1.35;0.40;;;23.90;49.60;;;;;;5042713;28;20021;-61
2022/10/24 12:44:22;;;;;;;2.65;0.63;;;24.00;49.50;;;;;;5047779;28;20143;-58
2022/10/24 12:46:55;;;;;;;1.95;0.40;;;24.00;49.20;;;;;;5037244;28;20036;-56
2022/10/24 12:49:33;;;;;;;2.00;0.68;;;24.10;49.10;;;;;;5048921;28;20104;-58
2022/10/24 12:52:30;;;;;;;2.17;0.57;;;24.10;48.90;;;;;;5052040;28;20037;-57
2022/10/24 12:54:57;;;;;;;2.13;0.52;;;24.20;48.70;;;;;;5050060;28;20483;-57
2022/10/24 12:57:36;;;;;;;1.33;0.50;;;24.20;48.60;;;;;;5044654;28;20029;-56
2022/10/24 13:00:20;;;;;;;7.03;0.80;;;24.20;48.50;;;;;;5048180;28;20025;-58
2022/10/24 13:02:49;;;;;;;2.13;0.68;;;24.30;48.40;;;;;;5048017;28;20045;-56
2022/10/24 13:05:33;;;;;;;2.58;0.80;;;24.30;48.30;;;;;;5049099;28;20444;-53
2022/10/24 13:08:11;;;;;;;2.70;0.70;;;24.30;48.20;;;;;;5048895;28;20025;-55
2022/10/24 13:11:09;;;;;;;1.75;0.60;;;24.40;48.10;;;;;;5045659;28;20025;-56
2022/10/24 13:13:56;;;;;;;2.47;0.70;;;24.40;48.10;;;;;;5050385;28;20024;-55
2022/10/24 13:16:44;;;;;;;3.22;1.05;;;24.40;48.10;;;;;;5049669;28;20049;-56